createdAt,value
2022-08-20T00:00:25.181Z,18.43
2022-08-20T00:02:56.000Z,18.53
2022-08-20T00:05:26.399Z,18.57
2022-08-20T00:07:54.401Z,18.61
2022-08-20T00:10:22.821Z,18.61
2022-08-20T00:12:53.473Z,18.35
2022-08-20T00:15:24.938Z,18.47
2022-08-20T00:17:54.650Z,18.43
2022-08-20T00:20:25.645Z,18.45
2022-08-20T00:22:54.099Z,18.53
2022-08-20T00:25:22.368Z,18.54
2022-08-20T00:27:50.261Z,18.63
2022-08-20T00:30:19.428Z,18.68
2022-08-20T00:32:49.209Z,18.71
2022-08-20T00:35:18.443Z,18.67
2022-08-20T00:37:46.318Z,18.59
2022-08-20T00:40:22.288Z,18.53
2022-08-20T00:42:55.376Z,18.51
2022-08-20T00:45:25.714Z,18.54
2022-08-20T00:47:55.369Z,18.57
2022-08-20T00:50:27.367Z,18.52
2022-08-20T00:52:55.822Z,18.56
2022-08-20T00:55:31.063Z,18.52
2022-08-20T00:58:03.885Z,18.53
2022-08-20T01:00:38.786Z,18.53
2022-08-20T01:03:09.952Z,18.60
2022-08-20T01:05:38.832Z,18.49
2022-08-20T01:08:07.301Z,18.32
2022-08-20T01:10:40.037Z,18.32
2022-08-20T01:13:13.347Z,18.37
2022-08-20T01:15:44.061Z,18.29
2022-08-20T01:18:14.970Z,18.29
2022-08-20T01:20:45.476Z,18.41
2022-08-20T01:23:30.978Z,18.53
2022-08-20T01:26:04.302Z,18.60
2022-08-20T01:28:39.203Z,18.55
2022-08-20T01:31:08.937Z,18.51
2022-08-20T01:33:37.469Z,18.42
2022-08-20T01:36:07.105Z,18.38
2022-08-20T01:38:35.425Z,18.39
2022-08-20T01:41:28.330Z,18.42
2022-08-20T01:43:58.291Z,18.49
2022-08-20T01:46:28.132Z,18.58
2022-08-20T01:48:58.164Z,18.60
2022-08-20T01:51:29.677Z,18.48
2022-08-20T01:53:59.977Z,18.32
2022-08-20T01:56:32.209Z,18.25
2022-08-20T01:59:02.646Z,18.23
2022-08-20T02:01:45.945Z,18.38
2022-08-20T02:04:15.429Z,18.32
2022-08-20T02:06:56.351Z,18.25
2022-08-20T02:09:26.483Z,18.02
2022-08-20T02:11:55.848Z,18.06
2022-08-20T02:14:23.639Z,18.17
2022-08-20T02:16:55.231Z,18.26
2022-08-20T02:19:27.235Z,18.27
2022-08-20T02:21:59.710Z,18.19
2022-08-20T02:24:27.495Z,18.11
2022-08-20T02:26:57.086Z,18.09
2022-08-20T02:29:26.139Z,18.00
2022-08-20T02:32:32.379Z,18.01
2022-08-20T02:34:42.187Z,18.07
2022-08-20T02:37:10.270Z,18.02
2022-08-20T02:39:38.053Z,17.69
2022-08-20T02:42:07.790Z,17.80
2022-08-20T02:44:35.718Z,17.71
2022-08-20T02:47:03.476Z,17.63
2022-08-20T02:49:31.657Z,17.54
2022-08-20T02:51:59.502Z,17.49
2022-08-20T02:54:27.231Z,17.49
2022-08-20T02:56:55.033Z,17.40
2022-08-20T02:59:24.233Z,17.36
2022-08-20T03:02:00.278Z,17.33
2022-08-20T03:04:28.448Z,17.25
2022-08-20T03:06:56.279Z,17.15
2022-08-20T03:09:24.122Z,17.19
2022-08-20T03:11:52.233Z,17.25
2022-08-20T03:14:20.651Z,17.28
2022-08-20T03:16:50.083Z,17.22
2022-08-20T03:19:17.902Z,17.18
2022-08-20T03:21:45.634Z,17.12
2022-08-20T03:24:13.498Z,16.97
2022-08-20T03:26:41.257Z,17.00
2022-08-20T03:29:09.437Z,17.14
2022-08-20T03:31:37.179Z,17.16
2022-08-20T03:34:06.382Z,16.89
2022-08-20T03:36:34.331Z,16.83
2022-08-20T03:39:06.316Z,16.79
2022-08-20T03:41:34.282Z,16.74
2022-08-20T03:44:02.046Z,16.71
2022-08-20T03:46:29.913Z,16.70
2022-08-20T03:49:00.657Z,16.57
2022-08-20T03:51:31.468Z,16.40
2022-08-20T03:53:59.755Z,16.23
2022-08-20T03:56:28.125Z,16.33
2022-08-20T03:58:55.956Z,16.41
2022-08-20T04:01:45.503Z,16.49
2022-08-20T04:04:12.221Z,16.50
2022-08-20T04:06:42.421Z,16.57
2022-08-20T04:09:11.607Z,16.62
2022-08-20T04:11:40.337Z,16.62
2022-08-20T04:14:09.221Z,16.61
2022-08-20T04:16:39.420Z,16.62
2022-08-20T04:19:07.450Z,16.55
2022-08-20T04:21:37.278Z,16.52
2022-08-20T04:24:07.324Z,16.55
2022-08-20T04:26:37.186Z,16.56
2022-08-20T04:29:05.696Z,16.53
2022-08-20T04:31:34.745Z,16.44
2022-08-20T04:34:04.200Z,16.38
2022-08-20T04:36:31.968Z,16.39
2022-08-20T04:38:59.757Z,16.48
2022-08-20T04:41:28.970Z,16.48
2022-08-20T04:43:58.394Z,16.43
2022-08-20T04:46:28.877Z,16.42
2022-08-20T04:48:58.026Z,16.42
2022-08-20T04:51:26.779Z,16.39
2022-08-20T04:53:56.532Z,16.47
2022-08-20T04:56:26.433Z,16.52
2022-08-20T04:58:58.237Z,16.57
2022-08-20T05:01:26.541Z,16.67
2022-08-20T05:03:55.797Z,16.64
2022-08-20T05:06:26.194Z,16.60
2022-08-20T05:08:54.165Z,16.49
2022-08-20T05:11:35.884Z,16.53
2022-08-20T05:14:08.796Z,16.71
2022-08-20T05:16:40.908Z,16.68
2022-08-20T05:19:11.924Z,16.68
2022-08-20T05:21:40.741Z,16.67
2022-08-20T05:24:10.056Z,16.73
2022-08-20T05:26:37.893Z,16.80
2022-08-20T05:29:07.547Z,16.80
2022-08-20T05:31:35.838Z,16.75
2022-08-20T05:34:03.927Z,16.78
2022-08-20T05:36:31.885Z,16.89
2022-08-20T05:38:59.746Z,17.02
2022-08-20T05:41:30.074Z,17.04
2022-08-20T05:44:01.306Z,17.04
2022-08-20T05:46:32.246Z,17.04
2022-08-20T05:49:01.451Z,17.02
2022-08-20T05:51:30.091Z,17.17
2022-08-20T05:53:59.497Z,17.25
2022-08-20T05:56:30.369Z,17.04
2022-08-20T05:59:00.585Z,17.14
2022-08-20T06:01:28.533Z,17.30
2022-08-20T06:04:15.592Z,17.25
2022-08-20T06:06:46.172Z,17.20
2022-08-20T06:09:15.742Z,17.13
2022-08-20T06:11:43.491Z,17.17
2022-08-20T06:14:11.286Z,17.22
2022-08-20T06:16:39.244Z,17.28
2022-08-20T06:19:25.153Z,17.40
2022-08-20T06:21:54.444Z,17.51
2022-08-20T06:24:22.318Z,17.54
2022-08-20T06:26:56.591Z,17.68
2022-08-20T06:29:24.339Z,17.80
2022-08-20T06:31:52.102Z,17.81
2022-08-20T06:34:21.405Z,17.84
2022-08-20T06:36:49.222Z,17.93
2022-08-20T06:39:17.452Z,18.09
2022-08-20T06:41:45.566Z,18.19
2022-08-20T06:44:13.453Z,18.28
2022-08-20T06:46:41.791Z,18.31
2022-08-20T06:49:09.646Z,18.43
2022-08-20T06:51:40.094Z,18.48
2022-08-20T06:54:09.266Z,18.43
2022-08-20T06:56:37.042Z,18.50
2022-08-20T06:59:04.795Z,18.53
2022-08-20T07:01:32.933Z,18.50
2022-08-20T07:04:00.760Z,18.41
2022-08-20T07:06:28.959Z,18.54
2022-08-20T07:08:58.371Z,18.59
2022-08-20T07:11:28.611Z,18.62
2022-08-20T07:13:58.142Z,18.72
2022-08-20T07:16:26.206Z,18.95
2022-08-20T07:18:54.300Z,18.94
2022-08-20T07:21:22.111Z,18.98
2022-08-20T07:23:50.025Z,18.95
2022-08-20T07:26:19.138Z,19.00
2022-08-20T07:28:47.414Z,19.00
2022-08-20T07:31:34.835Z,19.15
2022-08-20T07:34:03.484Z,19.26
2022-08-20T07:36:31.502Z,19.28
2022-08-20T07:38:59.268Z,19.51
2022-08-20T07:41:35.265Z,19.68
2022-08-20T07:44:03.455Z,19.83
2022-08-20T07:46:32.280Z,19.89
2022-08-20T07:49:00.371Z,19.96
2022-08-20T07:51:28.549Z,20.00
2022-08-20T07:53:58.174Z,19.99
2022-08-20T07:56:26.237Z,20.01
2022-08-20T07:58:59.276Z,20.10
2022-08-20T08:01:30.434Z,20.26
2022-08-20T08:03:59.027Z,20.32
2022-08-20T08:06:31.045Z,20.36
2022-08-20T08:09:04.138Z,20.12
2022-08-20T08:11:34.519Z,20.14
2022-08-20T08:14:06.638Z,20.16
2022-08-20T08:16:35.341Z,20.28
2022-08-20T08:19:07.598Z,20.32
2022-08-20T08:21:35.607Z,20.18
2022-08-20T08:24:03.733Z,20.36
2022-08-20T08:26:31.588Z,20.52
2022-08-20T08:28:59.343Z,20.74
2022-08-20T08:31:28.790Z,20.86
2022-08-20T08:33:56.703Z,20.94
2022-08-20T08:36:27.297Z,20.97
2022-08-20T08:38:56.460Z,20.98
2022-08-20T08:41:31.221Z,21.08
2022-08-20T08:44:08.109Z,21.02
2022-08-20T08:46:42.618Z,20.92
2022-08-20T08:49:15.153Z,21.01
2022-08-20T08:51:46.207Z,21.06
2022-08-20T08:54:17.546Z,21.33
2022-08-20T08:56:49.667Z,21.35
2022-08-20T08:59:19.389Z,21.53
2022-08-20T09:01:54.990Z,21.50
2022-08-20T09:04:31.456Z,21.74
2022-08-20T09:07:00.449Z,21.73
2022-08-20T09:09:30.687Z,22.02
2022-08-20T09:12:05.316Z,22.11
2022-08-20T09:14:33.651Z,22.20
2022-08-20T09:17:03.241Z,22.38
2022-08-20T09:19:31.141Z,22.21
2022-08-20T09:21:59.030Z,22.34
2022-08-20T09:24:26.859Z,22.51
2022-08-20T09:26:54.595Z,22.76
2022-08-20T09:29:22.302Z,22.73
2022-08-20T09:31:50.191Z,23.19
2022-08-20T09:34:19.294Z,23.59
2022-08-20T09:36:47.035Z,23.64
2022-08-20T09:39:15.855Z,23.28
2022-08-20T09:41:43.610Z,23.47
2022-08-20T09:44:11.352Z,23.59
2022-08-20T09:46:39.112Z,23.74
2022-08-20T09:49:06.876Z,23.83
2022-08-20T09:51:38.778Z,23.64
2022-08-20T09:54:07.204Z,23.75
2022-08-20T09:56:36.038Z,23.18
2022-08-20T09:59:04.029Z,22.98
2022-08-20T10:01:33.182Z,23.39
2022-08-20T10:04:01.035Z,23.38
2022-08-20T10:06:28.748Z,22.77
2022-08-20T10:08:57.864Z,23.30
2022-08-20T10:11:25.588Z,23.79
2022-08-20T10:13:53.298Z,24.06
2022-08-20T10:16:21.082Z,24.43
2022-08-20T10:18:49.411Z,24.48
2022-08-20T10:21:17.458Z,24.50
2022-08-20T10:23:45.326Z,24.99
2022-08-20T10:26:15.081Z,24.76
2022-08-20T10:28:42.840Z,24.76
2022-08-20T10:31:12.289Z,24.58
2022-08-20T10:33:42.171Z,24.34
2022-08-20T10:36:12.303Z,24.32
2022-08-20T10:38:40.120Z,23.96
2022-08-20T10:41:07.891Z,23.84
2022-08-20T10:43:37.042Z,24.29
2022-08-20T10:46:04.857Z,24.59
2022-08-20T10:48:33.106Z,24.37
2022-08-20T10:51:00.849Z,23.53
2022-08-20T10:53:28.605Z,23.05
2022-08-20T10:55:57.606Z,22.98
2022-08-20T10:58:25.770Z,22.94
2022-08-20T11:00:54.964Z,22.87
2022-08-20T11:03:22.731Z,22.73
2022-08-20T11:05:50.782Z,22.69
2022-08-20T11:08:33.543Z,22.81
2022-08-20T11:11:02.697Z,22.86
2022-08-20T11:13:30.427Z,22.79
2022-08-20T11:15:59.548Z,22.97
2022-08-20T11:18:27.331Z,23.01
2022-08-20T11:20:55.098Z,23.01
2022-08-20T11:23:23.334Z,23.11
2022-08-20T11:25:51.243Z,23.26
2022-08-20T11:28:31.969Z,23.23
2022-08-20T11:31:01.802Z,23.20
2022-08-20T11:33:29.642Z,23.18
2022-08-20T11:35:57.577Z,23.11
2022-08-20T11:38:25.576Z,23.05
2022-08-20T11:40:53.319Z,23.01
2022-08-20T11:43:21.063Z,23.25
2022-08-20T11:45:51.779Z,24.06
2022-08-20T11:48:20.921Z,24.59
2022-08-20T11:50:49.639Z,24.69
2022-08-20T11:53:18.005Z,24.81
2022-08-20T11:55:45.845Z,24.75
2022-08-20T11:58:13.633Z,24.58
2022-08-20T12:00:42.709Z,24.96
2022-08-20T12:03:11.861Z,24.96
2022-08-20T12:05:42.655Z,24.91
2022-08-20T12:08:27.491Z,24.62
2022-08-20T12:10:56.964Z,24.81
2022-08-20T12:13:30.524Z,24.96
2022-08-20T12:16:04.840Z,25.53
2022-08-20T12:18:32.937Z,25.77
2022-08-20T12:21:02.037Z,26.07
2022-08-20T12:23:29.794Z,26.23
2022-08-20T12:25:57.622Z,26.30
2022-08-20T12:28:27.085Z,26.14
2022-08-20T12:30:54.842Z,26.06
2022-08-20T12:33:22.586Z,25.75
2022-08-20T12:35:50.321Z,25.77
2022-08-20T12:38:19.497Z,25.99
2022-08-20T12:40:47.253Z,26.10
2022-08-20T12:43:15.036Z,26.42
2022-08-20T12:45:42.993Z,26.68
2022-08-20T12:48:13.119Z,26.71
2022-08-20T12:50:42.819Z,26.69
2022-08-20T12:53:10.608Z,27.05
2022-08-20T12:55:39.830Z,27.10
2022-08-20T12:58:10.318Z,27.46
2022-08-20T13:00:43.106Z,27.83
2022-08-20T13:03:13.357Z,27.87
2022-08-20T13:05:42.428Z,27.70
2022-08-20T13:08:12.220Z,27.86
2022-08-20T13:10:45.529Z,26.72
2022-08-20T13:13:13.838Z,26.42
2022-08-20T13:15:41.586Z,26.53
2022-08-20T13:18:09.786Z,26.91
2022-08-20T13:20:38.043Z,27.36
2022-08-20T13:23:06.264Z,27.41
2022-08-20T13:25:35.019Z,27.60
2022-08-20T13:28:06.177Z,27.57
2022-08-20T13:30:37.298Z,28.39
2022-08-20T13:33:05.180Z,28.59
2022-08-20T13:35:33.123Z,28.55
2022-08-20T13:38:00.963Z,28.50
2022-08-20T13:40:28.732Z,28.86
2022-08-20T13:42:56.599Z,29.06
2022-08-20T13:45:25.820Z,27.59
2022-08-20T13:47:55.679Z,27.06
2022-08-20T13:50:26.254Z,27.66
2022-08-20T13:52:56.190Z,27.86
2022-08-20T13:55:26.435Z,28.18
2022-08-20T13:57:56.356Z,28.45
2022-08-20T14:00:31.781Z,28.74
2022-08-20T14:03:00.256Z,28.98
2022-08-20T14:05:28.574Z,28.90
2022-08-20T14:07:56.645Z,28.83
2022-08-20T14:10:31.308Z,28.60
2022-08-20T14:12:59.478Z,29.09
2022-08-20T14:15:28.561Z,29.51
2022-08-20T14:17:58.608Z,28.71
2022-08-20T14:20:31.944Z,28.95
2022-08-20T14:23:01.610Z,29.15
2022-08-20T14:25:30.361Z,29.14
2022-08-20T14:27:58.862Z,29.10
2022-08-20T14:30:30.513Z,28.60
2022-08-20T14:32:58.589Z,29.06
2022-08-20T14:35:26.498Z,29.19
2022-08-20T14:37:56.587Z,28.95
2022-08-20T14:40:26.121Z,28.69
2022-08-20T14:42:54.192Z,28.96
2022-08-20T14:45:22.922Z,28.59
2022-08-20T14:47:54.390Z,28.83
2022-08-20T14:50:25.034Z,29.15
2022-08-20T14:52:53.040Z,29.13
2022-08-20T14:55:23.530Z,28.72
2022-08-20T14:57:51.834Z,28.27
2022-08-20T15:00:22.561Z,28.81
2022-08-20T15:02:50.364Z,28.91
2022-08-20T15:05:19.978Z,29.19
2022-08-20T15:07:51.556Z,29.05
2022-08-20T15:10:23.761Z,29.30
2022-08-20T15:12:51.549Z,28.33
2022-08-20T15:15:19.624Z,28.78
2022-08-20T15:17:49.512Z,29.00
2022-08-20T15:20:22.340Z,29.00
2022-08-20T15:22:51.131Z,29.01
2022-08-20T15:25:21.660Z,28.87
2022-08-20T15:27:49.966Z,29.09
2022-08-20T15:30:20.731Z,28.79
2022-08-20T15:32:54.082Z,28.72
2022-08-20T15:35:25.519Z,29.07
2022-08-20T15:37:54.731Z,28.93
2022-08-20T15:40:27.752Z,28.79
2022-08-20T15:42:56.273Z,28.64
2022-08-20T15:45:24.019Z,29.10
2022-08-20T15:47:56.209Z,29.09
2022-08-20T15:50:35.365Z,28.67
2022-08-20T15:53:08.414Z,28.19
2022-08-20T15:55:38.707Z,28.50
2022-08-20T15:58:15.757Z,28.63
2022-08-20T16:00:50.917Z,28.59
2022-08-20T16:03:59.080Z,28.26
2022-08-20T16:06:31.861Z,28.04
2022-08-20T16:09:14.090Z,28.03
2022-08-20T16:11:51.027Z,27.99
2022-08-20T16:14:22.413Z,28.00
2022-08-20T16:17:01.365Z,28.24
2022-08-20T16:19:36.994Z,28.04
2022-08-20T16:22:08.345Z,27.81
2022-08-20T16:24:36.162Z,27.94
2022-08-20T16:27:13.542Z,28.00
2022-08-20T16:29:48.189Z,28.05
2022-08-20T16:32:24.495Z,28.25
2022-08-20T16:34:57.597Z,27.97
2022-08-20T16:37:36.900Z,27.64
2022-08-20T16:40:20.087Z,27.72
2022-08-20T16:42:51.224Z,27.72
2022-08-20T16:45:22.110Z,27.64
2022-08-20T16:47:51.792Z,27.57
2022-08-20T16:50:24.020Z,27.48
2022-08-20T16:52:53.984Z,27.53
2022-08-20T16:55:24.669Z,27.58
2022-08-20T16:57:53.016Z,27.28
2022-08-20T17:00:25.792Z,27.45
2022-08-20T17:02:54.879Z,27.58
2022-08-20T17:05:23.453Z,27.44
2022-08-20T17:07:54.921Z,27.83
2022-08-20T17:10:28.413Z,27.57
2022-08-20T17:12:59.707Z,27.50
2022-08-20T17:15:30.118Z,27.41
2022-08-20T17:18:17.991Z,27.30
2022-08-20T17:20:46.716Z,27.13
2022-08-20T17:23:19.002Z,27.07
2022-08-20T17:25:57.736Z,26.89
2022-08-20T17:28:25.577Z,26.71
2022-08-20T17:30:53.987Z,26.69
2022-08-20T17:33:31.239Z,26.54
2022-08-20T17:36:02.334Z,26.56
2022-08-20T17:38:38.192Z,26.54
2022-08-20T17:41:16.568Z,26.48
2022-08-20T17:43:45.920Z,26.23
2022-08-20T17:46:17.357Z,26.27
2022-08-20T17:48:46.931Z,26.28
2022-08-20T17:51:19.941Z,26.35
2022-08-20T17:53:54.069Z,26.41
2022-08-20T17:56:27.100Z,26.45
2022-08-20T17:59:01.382Z,26.47
2022-08-20T18:01:31.733Z,26.42
2022-08-20T18:03:59.746Z,26.21
2022-08-20T18:06:37.556Z,26.19
2022-08-20T18:09:16.890Z,26.15
2022-08-20T18:11:50.588Z,26.00
2022-08-20T18:14:31.478Z,25.95
2022-08-20T18:17:14.695Z,25.82
2022-08-20T18:20:06.638Z,25.76
2022-08-20T18:22:44.004Z,25.75
2022-08-20T18:25:22.955Z,25.66
2022-08-20T18:27:53.874Z,25.54
2022-08-20T18:30:24.181Z,25.40
2022-08-20T18:33:03.099Z,25.35
2022-08-20T18:35:37.526Z,25.15
2022-08-20T18:38:28.181Z,24.99
2022-08-20T18:41:12.560Z,24.98
2022-08-20T18:43:40.878Z,24.89
2022-08-20T18:46:14.370Z,24.76
2022-08-20T18:48:55.841Z,24.62
2022-08-20T18:51:35.428Z,24.56
2022-08-20T18:54:04.240Z,24.59
2022-08-20T18:56:41.997Z,24.48
2022-08-20T18:59:15.493Z,24.28
2022-08-20T19:01:44.477Z,24.23
2022-08-20T19:04:21.870Z,24.14
2022-08-20T19:06:57.423Z,23.99
2022-08-20T19:09:53.696Z,23.86
2022-08-20T19:12:39.189Z,23.82
2022-08-20T19:15:12.533Z,23.74
2022-08-20T19:17:52.947Z,23.60
2022-08-20T19:20:23.709Z,23.49
2022-08-20T19:22:53.642Z,23.35
2022-08-20T19:25:27.200Z,23.29
2022-08-20T19:27:58.033Z,23.25
2022-08-20T19:30:36.491Z,23.13
2022-08-20T19:33:05.062Z,22.97
2022-08-20T19:35:33.141Z,22.81
2022-08-20T19:38:02.231Z,22.84
2022-08-20T19:40:33.073Z,22.93
2022-08-20T19:43:16.099Z,22.93
2022-08-20T19:45:48.175Z,22.99
2022-08-20T19:48:32.129Z,23.00
2022-08-20T19:51:07.546Z,22.89
2022-08-20T19:53:38.367Z,22.96
2022-08-20T19:56:10.868Z,22.89
2022-08-20T19:58:41.862Z,22.78
2022-08-20T20:01:16.301Z,22.80
2022-08-20T20:03:56.659Z,22.74
2022-08-20T20:06:26.863Z,22.62
2022-08-20T20:08:57.469Z,22.44
2022-08-20T20:11:31.909Z,22.40
2022-08-20T20:14:07.709Z,22.42
2022-08-20T20:16:36.265Z,22.43
2022-08-20T20:19:25.674Z,22.33
2022-08-20T20:22:06.078Z,22.29
2022-08-20T20:24:42.788Z,21.96
2022-08-20T20:27:20.245Z,22.05
2022-08-20T20:29:58.602Z,22.18
2022-08-20T20:32:26.574Z,22.18
2022-08-20T20:34:57.090Z,22.13
2022-08-20T20:37:39.156Z,21.93
2022-08-20T20:40:25.390Z,21.97
2022-08-20T20:43:02.437Z,22.04
2022-08-20T20:45:34.782Z,22.10
2022-08-20T20:48:15.193Z,22.04
2022-08-20T20:50:43.022Z,22.07
2022-08-20T20:53:11.118Z,22.05
2022-08-20T20:55:39.860Z,21.90
2022-08-20T20:58:07.952Z,21.84
2022-08-20T21:00:37.139Z,21.81
2022-08-20T21:03:04.989Z,21.90
2022-08-20T21:05:33.418Z,21.86
2022-08-20T21:08:03.782Z,21.87
2022-08-20T21:10:34.846Z,21.84
2022-08-20T21:13:03.868Z,21.69
2022-08-20T21:15:32.805Z,21.64
2022-08-20T21:18:03.292Z,21.55
2022-08-20T21:20:31.481Z,21.35
2022-08-20T21:23:01.038Z,21.51
2022-08-20T21:25:30.421Z,21.24
2022-08-20T21:27:58.420Z,21.46
2022-08-20T21:30:26.423Z,21.43
2022-08-20T21:32:54.505Z,21.23
2022-08-20T21:35:23.841Z,21.07
2022-08-20T21:37:51.891Z,21.18
2022-08-20T21:40:21.831Z,21.33
2022-08-20T21:42:50.092Z,21.37
2022-08-20T21:45:19.858Z,21.38
2022-08-20T21:47:48.829Z,21.36
2022-08-20T21:50:19.168Z,21.27
2022-08-20T21:52:59.496Z,21.30
2022-08-20T21:55:29.302Z,21.23
2022-08-20T21:57:57.798Z,21.17
2022-08-20T22:00:52.379Z,21.14
2022-08-20T22:03:21.166Z,21.20
2022-08-20T22:05:50.559Z,21.20
2022-08-20T22:08:20.455Z,21.20
2022-08-20T22:10:48.320Z,21.06
2022-08-20T22:13:17.093Z,21.07
2022-08-20T22:15:44.833Z,21.17
2022-08-20T22:18:12.576Z,21.16
2022-08-20T22:20:41.424Z,21.15
2022-08-20T22:23:09.427Z,21.00
2022-08-20T22:25:38.546Z,21.06
2022-08-20T22:28:06.852Z,20.92
2022-08-20T22:30:35.639Z,20.97
2022-08-20T22:33:10.731Z,20.83
2022-08-20T22:35:42.722Z,20.87
2022-08-20T22:38:10.460Z,20.74
2022-08-20T22:40:39.608Z,20.71
2022-08-20T22:43:07.665Z,20.78
2022-08-20T22:45:36.807Z,20.68
2022-08-20T22:48:06.594Z,20.57
2022-08-20T22:50:34.434Z,20.57
2022-08-20T22:53:02.889Z,20.54
2022-08-20T22:55:30.727Z,20.53
2022-08-20T22:57:59.924Z,20.46
2022-08-20T23:00:28.847Z,20.39
2022-08-20T23:02:59.940Z,20.40
2022-08-20T23:05:30.473Z,20.39
2022-08-20T23:08:00.449Z,20.24
2022-08-20T23:10:29.886Z,20.21
2022-08-20T23:12:59.325Z,20.23
2022-08-20T23:15:28.581Z,20.16
2022-08-20T23:18:01.097Z,20.18
2022-08-20T23:20:28.882Z,20.15
2022-08-20T23:22:56.828Z,20.10
2022-08-20T23:25:24.729Z,20.02
2022-08-20T23:27:57.053Z,19.97
2022-08-20T23:30:33.179Z,19.88
2022-08-20T23:33:01.521Z,19.83
2022-08-20T23:35:33.140Z,19.77
2022-08-20T23:38:01.213Z,19.73
2022-08-20T23:40:31.080Z,19.65
2022-08-20T23:42:59.715Z,19.53
2022-08-20T23:45:29.091Z,19.50
2022-08-20T23:47:58.538Z,19.40
2022-08-20T23:50:30.130Z,19.35
2022-08-20T23:52:58.633Z,19.40
2022-08-20T23:55:26.892Z,19.39
2022-08-20T23:57:55.071Z,19.39
